Have a Safe July 4th! 

Flight Track Log - Related Links

Times and Time Zones

All times are in EDT time to prevent confusion due to time zone crossing. See the WIG7117 flight status page for this flight to view local times or setup timezone preferences in your user account.

Time Position Orientation Groundspeed Altitude Reporting Facility
EDT Latitude Longitude Course Direction KTS MPH feet Rate Location/Type
Tue 10:10:05 PM 42.7592 -73.8031 310° West 68 78 1,200  Level Boston Center
Tue 10:11:06 PM 42.7733 -73.8261 310° West 96 110 2,200 992 Climbing Boston Center
Tue 10:12:06 PM 42.7811 -73.8686 284° West 131 151 3,200 1,033 Climbing Boston Center
Tue 10:13:08 PM 42.7867 -73.9169 279° West 124 143 4,300 1,033 Climbing Boston Center
Tue 10:14:08 PM 42.7925 -73.9622 280° West 121 139 5,300 942 Climbing Boston Center
Tue 10:15:09 PM 42.8003 -74.0022 285° West 116 133 6,200 850 Climbing Boston Center
Tue 10:16:08 PM 42.8100 -74.0533 285° West 124 143 7,000 793 Climbing Boston Center
Tue 10:17:10 PM 42.8156 -74.0986 280° West 128 147 7,800 492 Climbing Boston Center
Tue 10:18:10 PM 42.8231 -74.1500 281° West 135 155 8,000 149 Climbing Boston Center
Tue 10:19:11 PM 42.8328 -74.2039 284° West 147 169 8,100 50 Climbing Boston Center
Tue 10:20:11 PM 42.8403 -74.2581 281° West 144 166 8,100  Level Boston Center
Tue 10:20:29 PM 42.8419 -74.2722 279° West 144 166 8,100  Level Boston Center
Tue 10:20:42 PM 42.8439 -74.2864 281° West 144 166 8,100  Level Boston Center
Tue 10:21:42 PM 42.8533 -74.3406 283° West 145 167 8,100  Level Boston Center
Tue 10:22:44 PM 42.8608 -74.3944 281° West 146 168 8,100 -49 Level Boston Center
Tue 10:23:44 PM 42.8683 -74.4514 280° West 146 168 8,000 -50 Descending Boston Center
Tue 10:24:44 PM 42.8778 -74.5056 283° West 147 169 8,000  Level Boston Center
Tue 10:25:46 PM 42.8872 -74.5569 284° West 149 171 8,000  Level Boston Center
Tue 10:26:44 PM 42.8922 -74.6139 277° West 148 170 8,000  Level Boston Center
Tue 10:27:45 PM 42.9017 -74.6736 282° West 149 171 8,000  Level Boston Center
Tue 10:28:48 PM 42.9108 -74.7278 283° West 150 173 8,000  Level Boston Center
Tue 10:29:46 PM 42.9203 -74.7878 282° West 151 174 8,000  Level Boston Center
Tue 10:30:48 PM 42.9317 -74.8392 287° West 151 174 8,000  Level Boston Center
Tue 10:31:48 PM 42.9386 -74.8992 279° West 152 175 8,000  Level Boston Center
Tue 10:32:48 PM 42.9478 -74.9561 282° West 151 174 8,000  Level Boston Center
Tue 10:33:51 PM 42.9569 -75.0106 283° West 151 174 8,000  Level Boston Center
Tue 10:34:52 PM 42.9639 -75.0703 279° West 151 174 8,000  Level Boston Center
Tue 10:35:58 PM 42.9731 -75.1303 282° West 152 175 8,000  Level Boston Center
Tue 10:36:59 PM 42.9800 -75.1847 280° West 154 177 8,000  Level Boston Center
Tue 10:38:00 PM 42.9911 -75.2447 284° West 152 175 8,000  Level Boston Center
Tue 10:39:00 PM 42.9981 -75.3017 279° West 154 177 8,000  Level Boston Center
Tue 10:40:01 PM 43.0069 -75.3589 282° West 155 178 8,000  Level Boston Center
Tue 10:41:02 PM 43.0139 -75.4161 279° West 155 178 8,000  Level Boston Center
Tue 10:42:02 PM 43.0206 -75.4789 278° West 156 180 8,000 -347 Level Boston Center
Tue 10:43:03 PM 43.0144 -75.5469 263° West 181 208 7,300 -645 Descending Boston Center
Tue 10:44:03 PM 43.0086 -75.6119 263° West 178 205 6,700 -595 Descending Boston Center
Tue 10:45:04 PM 43.0025 -75.6769 263° West 174 200 6,100 -650 Descending Boston Center
Tue 10:46:03 PM 42.9967 -75.7419 263° West 173 199 5,400 -655 Descending Boston Center
Tue 10:47:03 PM 42.9925 -75.8069 265° West 170 196 4,800 -595 Descending Boston Center
Tue 10:48:04 PM 42.9969 -75.8697 276° West 166 191 4,200 -513 Descending Boston Center
Tue 10:49:00 PM 42.9972 -75.9264 270° West 165 190 3,800 -313 Descending Boston Center
Tue 10:49:59 PM 42.9997 -75.9861 273° West 157 181 3,600 -100 Descending Boston Center
Tue 10:51:00 PM 42.9978 -76.0431 267° West 141 162 3,600 -148 Level Boston Center
Tue 10:52:01 PM 43.0150 -76.0894 297° West 142 163 3,300 -500 Descending Boston Center
Tue 10:53:00 PM 43.0472 -76.1311 317° Northwest 144 166 2,600 -787 Descending Boston Center
Tue 10:54:03 PM 43.0794 -76.1644 323° Northwest 147 169 1,700 -857 Descending Boston Center
Tue 10:56:00 PM 43.1000 -76.1000 353° North  Level FlightAware Approximate

Login

Don't have an account? Register now (free) for customized features, flight alerts, and more!